Time;durP1;ratioP1;P1;durP2;ratioP2;P2;SDS_P1;SDS_P2;PMS_P1;PMS_P2;Temp;Humidity;BMP_temperature;BMP_pressure;BME280_temperature;BME280_humidity;BME280_pressure;Samples;Min_cycle;Max_cycle;Signal;HPM_P1;HPM_P2
2022/07/15 00:00:09;;;;;;;3.10;1.50;;;14.30;99.90;;;;;;4938713;29;20066;-79
2022/07/15 00:02:34;;;;;;;3.78;1.92;;;14.30;99.90;;;;;;4937822;29;20048;-79
2022/07/15 00:05:00;;;;;;;3.13;1.92;;;14.30;99.90;;;;;;4938331;29;20048;-80
2022/07/15 00:07:26;;;;;;;3.00;2.00;;;14.30;99.90;;;;;;4938934;29;20051;-77
2022/07/15 00:12:36;;;;;;;3.97;2.00;;;14.30;99.90;;;;;;4937789;29;20086;-76
2022/07/15 00:15:03;;;;;;;4.57;1.83;;;14.20;99.90;;;;;;4936551;29;20048;-80
2022/07/15 00:17:28;;;;;;;4.07;2.15;;;14.30;99.90;;;;;;4938175;29;20055;-77
2022/07/15 00:19:54;;;;;;;5.63;2.10;;;14.30;99.90;;;;;;4938092;29;20059;-79
2022/07/15 00:22:20;;;;;;;3.08;1.60;;;14.30;99.90;;;;;;4938041;29;20070;-80
2022/07/15 00:24:46;;;;;;;3.13;1.38;;;14.30;99.90;;;;;;4937978;29;20489;-78
2022/07/15 00:27:12;;;;;;;10.43;2.00;;;14.30;99.90;;;;;;4938001;29;20062;-79
2022/07/15 00:29:37;;;;;;;2.45;1.80;;;14.30;99.90;;;;;;4938757;29;20050;-79
2022/07/15 00:32:03;;;;;;;6.38;2.47;;;14.30;99.90;;;;;;4938006;29;20453;-78
2022/07/15 00:34:29;;;;;;;5.88;2.00;;;14.30;99.90;;;;;;4938290;29;20122;-80
2022/07/15 00:36:55;;;;;;;2.97;1.23;;;14.40;99.90;;;;;;4937663;29;20515;-79
2022/07/15 00:39:20;;;;;;;5.80;1.95;;;14.40;99.90;;;;;;4938114;29;20047;-79
2022/07/15 00:41:46;;;;;;;5.32;1.90;;;14.40;99.90;;;;;;4938054;29;20043;-78
2022/07/15 00:44:12;;;;;;;3.90;2.28;;;14.40;99.90;;;;;;4937580;29;20063;-80
2022/07/15 00:46:38;;;;;;;7.70;1.90;;;14.40;99.90;;;;;;4937414;29;20044;-79
2022/07/15 00:49:06;;;;;;;7.32;1.83;;;14.40;99.90;;;;;;4937665;29;20044;-75
2022/07/15 00:51:43;;;;;;;6.88;1.92;;;14.40;99.90;;;;;;4937714;29;20134;-80
2022/07/15 00:54:11;;;;;;;4.65;1.90;;;14.40;99.90;;;;;;4937467;29;20071;-78
2022/07/15 00:56:45;;;;;;;4.20;1.60;;;14.40;99.90;;;;;;4937357;29;20507;-78
2022/07/15 00:59:13;;;;;;;4.22;1.90;;;14.40;99.90;;;;;;4937711;29;20056;-77
2022/07/15 01:01:41;;;;;;;8.00;2.13;;;14.40;99.90;;;;;;4937350;29;20040;-76
2022/07/15 01:04:07;;;;;;;8.10;2.15;;;14.40;99.90;;;;;;4937837;29;20051;-80
2022/07/15 01:06:33;;;;;;;4.95;2.17;;;14.40;99.90;;;;;;4937247;29;20066;-77
2022/07/15 01:08:59;;;;;;;2.45;1.25;;;14.40;99.90;;;;;;4937545;29;20050;-76
2022/07/15 01:11:26;;;;;;;6.20;2.05;;;14.40;99.90;;;;;;4937587;29;20050;-74
2022/07/15 01:13:52;;;;;;;3.47;1.27;;;14.40;99.90;;;;;;4936919;29;20098;-75
2022/07/15 01:16:17;;;;;;;5.10;1.58;;;14.40;99.90;;;;;;4937336;29;20048;-75
2022/07/15 01:18:43;;;;;;;5.65;1.73;;;14.40;99.90;;;;;;4936920;29;20481;-79
2022/07/15 01:21:09;;;;;;;4.63;1.63;;;14.40;99.90;;;;;;4937262;29;20044;-78
2022/07/15 01:23:36;;;;;;;4.60;1.98;;;14.30;99.90;;;;;;4937094;29;20048;-80
2022/07/15 01:26:02;;;;;;;4.40;1.70;;;14.30;99.90;;;;;;4937230;29;20150;-78
2022/07/15 01:28:28;;;;;;;6.75;1.38;;;14.20;99.90;;;;;;4936944;29;20047;-80
2022/07/15 01:30:53;;;;;;;6.28;1.95;;;14.10;99.90;;;;;;4920060;29;20055;-76
2022/07/15 01:33:19;;;;;;;3.53;1.67;;;14.10;99.90;;;;;;4936861;29;20055;-78
2022/07/15 01:35:45;;;;;;;4.68;1.80;;;14.00;99.90;;;;;;4936751;29;20075;-75
2022/07/15 01:38:10;;;;;;;5.88;1.50;;;13.90;99.90;;;;;;4936386;29;20060;-79
2022/07/15 01:40:36;;;;;;;5.03;2.35;;;13.80;99.90;;;;;;4936663;29;20099;-76
2022/07/15 01:43:02;;;;;;;4.15;2.20;;;13.80;99.90;;;;;;4936697;29;20047;-79
2022/07/15 01:45:27;;;;;;;3.85;1.35;;;13.80;99.90;;;;;;4936802;29;20369;-77
2022/07/15 01:47:54;;;;;;;6.25;2.60;;;13.70;99.90;;;;;;4936521;29;20122;-78
2022/07/15 01:50:20;;;;;;;2.70;1.75;;;13.70;99.90;;;;;;4936501;29;20062;-79
2022/07/15 01:52:46;;;;;;;3.88;2.00;;;13.70;99.90;;;;;;4936387;29;20052;-79
2022/07/15 01:55:12;;;;;;;5.28;2.10;;;13.80;99.90;;;;;;4936563;29;20070;-76
2022/07/15 01:57:38;;;;;;;6.07;2.25;;;13.80;99.90;;;;;;4935917;29;20103;-78
2022/07/15 02:00:07;;;;;;;4.82;2.15;;;13.80;99.90;;;;;;4935956;29;20428;-77
2022/07/15 02:02:32;;;;;;;6.00;1.88;;;13.80;99.90;;;;;;4935219;29;20051;-79
2022/07/15 02:04:58;;;;;;;8.68;1.92;;;13.80;99.90;;;;;;4935405;29;20075;-77
2022/07/15 02:07:24;;;;;;;8.13;2.53;;;13.80;99.90;;;;;;4935761;29;20043;-76
2022/07/15 02:09:49;;;;;;;6.45;1.55;;;13.80;99.90;;;;;;4935556;29;20060;-79
2022/07/15 02:12:15;;;;;;;3.72;1.42;;;13.80;99.90;;;;;;4935459;29;20123;-78
2022/07/15 02:14:41;;;;;;;2.33;1.55;;;13.80;99.90;;;;;;4935625;29;20047;-79
2022/07/15 02:17:07;;;;;;;4.05;2.00;;;13.80;99.90;;;;;;4935522;29;20099;-77
2022/07/15 02:19:33;;;;;;;7.25;1.90;;;13.90;99.90;;;;;;4935589;29;20123;-78
2022/07/15 02:21:59;;;;;;;4.93;1.65;;;13.90;99.90;;;;;;4935129;29;20573;-79
2022/07/15 02:24:24;;;;;;;6.50;1.67;;;13.90;99.90;;;;;;4935582;29;20090;-75
2022/07/15 02:26:50;;;;;;;2.80;1.70;;;13.90;99.90;;;;;;4935603;29;20500;-78
2022/07/15 02:29:16;;;;;;;4.03;1.55;;;13.80;99.90;;;;;;4935782;29;20070;-78
2022/07/15 02:31:42;;;;;;;5.72;2.50;;;13.80;99.90;;;;;;4935007;29;20048;-76
2022/07/15 02:34:08;;;;;;;4.13;1.55;;;13.40;99.90;;;;;;4935579;29;20054;-78
2022/07/15 02:36:35;;;;;;;3.53;1.52;;;13.60;99.90;;;;;;4935646;29;20098;-78
2022/07/15 02:39:02;;;;;;;5.90;2.22;;;13.50;99.90;;;;;;4936021;29;20064;-79
2022/07/15 02:41:28;;;;;;;5.10;1.52;;;13.50;99.90;;;;;;4935636;29;20126;-78
2022/07/15 02:43:55;;;;;;;5.57;2.30;;;13.50;99.90;;;;;;4935702;29;20094;-79
2022/07/15 02:46:21;;;;;;;2.80;1.70;;;13.40;99.90;;;;;;4935426;29;20122;-78
2022/07/15 02:48:47;;;;;;;3.47;1.45;;;13.30;99.90;;;;;;4935405;29;20051;-78
2022/07/15 02:51:13;;;;;;;4.57;1.60;;;13.20;99.90;;;;;;4935522;29;20044;-76
2022/07/15 02:53:39;;;;;;;1.42;1.30;;;13.30;99.90;;;;;;4935273;29;20127;-76
2022/07/15 02:56:05;;;;;;;1.52;1.02;;;13.20;99.90;;;;;;4935294;29;20083;-80
2022/07/15 02:58:31;;;;;;;5.07;1.50;;;13.10;99.90;;;;;;4935268;29;20048;-78
2022/07/15 03:00:59;;;;;;;4.25;2.17;;;13.10;99.90;;;;;;4935145;29;20083;-79
2022/07/15 03:03:28;;;;;;;4.03;1.60;;;13.00;99.90;;;;;;4934992;29;20452;-76
2022/07/15 03:05:56;;;;;;;5.50;1.95;;;13.00;99.90;;;;;;4935288;29;20052;-76
2022/07/15 03:08:21;;;;;;;3.95;1.70;;;12.90;99.90;;;;;;4935415;29;20063;-78
2022/07/15 03:10:47;;;;;;;3.03;1.48;;;12.90;99.90;;;;;;4935243;29;20498;-79
2022/07/15 03:13:12;;;;;;;1.88;1.40;;;12.80;99.90;;;;;;4935143;29;20051;-76
2022/07/15 03:15:38;;;;;;;6.93;2.08;;;12.80;99.90;;;;;;4935461;29;20045;-77
2022/07/15 03:18:04;;;;;;;5.45;1.52;;;12.80;99.90;;;;;;4935678;29;20534;-78
2022/07/15 03:20:30;;;;;;;5.60;1.70;;;12.40;99.90;;;;;;4935009;29;20543;-78
2022/07/15 03:22:56;;;;;;;4.38;1.98;;;12.70;99.90;;;;;;4935071;29;20043;-77
2022/07/15 03:25:21;;;;;;;5.72;2.15;;;12.70;99.90;;;;;;4935190;29;20052;-78
2022/07/15 03:27:47;;;;;;;4.82;1.58;;;12.70;99.90;;;;;;4934868;29;20123;-79
2022/07/15 03:30:13;;;;;;;2.13;1.60;;;12.60;99.90;;;;;;4936836;29;20048;-77
2022/07/15 03:32:38;;;;;;;5.32;2.08;;;12.60;99.90;;;;;;4938938;29;20054;-76
2022/07/15 03:35:04;;;;;;;2.78;1.42;;;12.60;99.90;;;;;;4939159;29;20494;-76
2022/07/15 03:37:30;;;;;;;4.47;2.35;;;12.60;99.90;;;;;;4938599;29;20066;-77
2022/07/15 03:39:56;;;;;;;4.60;1.73;;;12.60;99.90;;;;;;4938878;29;20126;-78
2022/07/15 03:42:21;;;;;;;4.38;1.73;;;12.60;99.90;;;;;;4938958;29;20043;-77
2022/07/15 03:44:47;;;;;;;3.35;1.55;;;12.60;99.90;;;;;;4938179;29;20040;-79
2022/07/15 03:47:13;;;;;;;4.78;1.75;;;12.60;99.90;;;;;;4939016;29;20048;-76
2022/07/15 03:49:39;;;;;;;4.43;1.55;;;12.50;99.90;;;;;;4938770;29;20058;-75
2022/07/15 03:52:05;;;;;;;5.45;2.08;;;12.50;99.90;;;;;;4938577;29;20090;-79
2022/07/15 03:54:30;;;;;;;4.68;1.70;;;12.50;99.90;;;;;;4938821;29;20414;-77
2022/07/15 03:56:56;;;;;;;6.30;2.08;;;12.50;99.90;;;;;;4938092;29;20059;-76
2022/07/15 03:59:22;;;;;;;2.63;1.85;;;12.50;99.90;;;;;;4937110;29;20071;-78
2022/07/15 04:01:48;;;;;;;3.28;1.30;;;12.60;99.90;;;;;;4938267;29;20048;-79
2022/07/15 04:04:15;;;;;;;6.28;1.85;;;12.70;99.90;;;;;;4938531;29;20043;-76
2022/07/15 04:06:41;;;;;;;10.70;2.22;;;12.80;99.90;;;;;;4938255;29;20142;-80
2022/07/15 04:09:07;;;;;;;2.65;1.33;;;12.80;99.90;;;;;;4938090;29;20396;-78
2022/07/15 04:11:33;;;;;;;1.42;1.20;;;12.90;99.90;;;;;;4938256;29;20051;-78
2022/07/15 04:13:59;;;;;;;4.55;1.92;;;12.90;99.90;;;;;;4938063;29;20043;-76
2022/07/15 04:16:25;;;;;;;2.97;1.67;;;13.00;99.90;;;;;;4938030;29;20052;-75
2022/07/15 04:18:51;;;;;;;2.15;1.23;;;13.10;99.90;;;;;;4938113;29;20103;-74
2022/07/15 04:21:18;;;;;;;3.72;1.33;;;13.10;99.90;;;;;;4938230;29;20151;-78
2022/07/15 04:23:43;;;;;;;5.90;1.58;;;13.20;99.90;;;;;;4936692;29;20055;-76
2022/07/15 04:26:09;;;;;;;3.53;1.27;;;13.20;99.90;;;;;;4937960;29;20102;-77
2022/07/15 04:28:35;;;;;;;2.17;1.48;;;13.30;99.90;;;;;;4938282;29;20052;-79
2022/07/15 04:31:00;;;;;;;1.60;1.30;;;13.30;99.90;;;;;;4938090;29;20120;-76
2022/07/15 04:33:26;;;;;;;2.88;1.48;;;13.40;99.90;;;;;;4938035;29;20048;-79
2022/07/15 04:35:52;;;;;;;4.65;1.30;;;13.40;99.90;;;;;;4937666;29;20051;-79
2022/07/15 04:38:18;;;;;;;4.55;1.33;;;13.40;99.90;;;;;;4937706;29;20143;-78
2022/07/15 04:40:44;;;;;;;4.63;1.52;;;13.50;99.90;;;;;;4937363;29;20375;-78
2022/07/15 04:43:09;;;;;;;2.70;1.40;;;13.50;99.90;;;;;;4937460;29;20055;-77
2022/07/15 04:45:35;;;;;;;1.77;1.63;;;13.60;99.90;;;;;;4937580;29;20047;-78
2022/07/15 04:48:02;;;;;;;4.70;1.10;;;13.60;99.90;;;;;;4937524;29;20044;-80
2022/07/15 04:50:46;;;;;;;2.42;1.33;;;13.70;99.90;;;;;;4937446;29;20047;-78
2022/07/15 04:53:12;;;;;;;1.92;1.73;;;14.00;99.90;;;;;;4937545;29;20051;-78
2022/07/15 04:55:38;;;;;;;4.82;1.50;;;13.90;99.90;;;;;;4937437;29;20047;-79
2022/07/15 04:58:03;;;;;;;2.33;1.00;;;14.10;99.90;;;;;;4937384;29;20048;-77
2022/07/15 05:00:29;;;;;;;3.40;1.40;;;14.30;99.90;;;;;;4937329;29;20103;-76
2022/07/15 05:02:55;;;;;;;4.30;1.10;;;14.40;99.90;;;;;;4937330;29;20127;-78
2022/07/15 05:05:20;;;;;;;4.20;1.10;;;14.50;99.90;;;;;;4937386;29;20051;-78
2022/07/15 05:07:46;;;;;;;1.70;1.40;;;14.60;99.90;;;;;;4937031;29;20127;-80
2022/07/15 05:10:12;;;;;;;3.08;1.30;;;14.70;99.90;;;;;;4937172;29;20047;-77
2022/07/15 05:12:39;;;;;;;1.42;0.90;;;14.80;99.90;;;;;;4937539;29;20072;-77
2022/07/15 05:15:05;;;;;;;4.38;1.27;;;14.90;99.90;;;;;;4937001;29;20055;-75
2022/07/15 05:17:31;;;;;;;4.15;0.77;;;14.90;99.90;;;;;;4936761;29;20510;-78
2022/07/15 05:19:57;;;;;;;1.83;1.17;;;14.90;99.90;;;;;;4936712;29;20480;-80
2022/07/15 05:22:23;;;;;;;3.35;1.10;;;14.90;99.90;;;;;;4936509;29;20102;-75
2022/07/15 05:24:49;;;;;;;4.45;0.90;;;14.90;99.90;;;;;;4937020;29;20044;-76
2022/07/15 05:27:15;;;;;;;2.42;1.20;;;14.80;99.90;;;;;;4936519;29;20575;-77
2022/07/15 05:29:41;;;;;;;1.50;0.70;;;14.80;99.90;;;;;;4936235;29;20358;-77
2022/07/15 05:32:07;;;;;;;1.48;0.90;;;14.70;99.90;;;;;;4936763;29;20075;-76
2022/07/15 05:34:33;;;;;;;1.35;1.00;;;14.80;99.90;;;;;;4936285;29;20044;-78
2022/07/15 05:36:58;;;;;;;4.00;1.10;;;14.80;99.90;;;;;;4936427;29;20173;-76
2022/07/15 05:39:24;;;;;;;3.00;1.00;;;14.80;99.90;;;;;;4936641;29;20468;-76
2022/07/15 05:41:50;;;;;;;1.92;0.90;;;14.90;99.90;;;;;;4936639;29;20047;-79
2022/07/15 05:44:16;;;;;;;1.80;0.93;;;14.90;99.90;;;;;;4936323;29;20471;-77
2022/07/15 05:46:42;;;;;;;1.70;1.45;;;14.90;99.90;;;;;;4936535;29;20555;-76
2022/07/15 05:49:07;;;;;;;2.40;1.40;;;14.90;99.90;;;;;;4936284;29;20047;-77
2022/07/15 05:51:36;;;;;;;1.27;0.77;;;15.00;99.90;;;;;;4936049;29;20453;-76
2022/07/15 05:54:02;;;;;;;2.55;1.75;;;15.00;99.90;;;;;;4934266;29;20099;-79
2022/07/15 05:56:28;;;;;;;1.05;0.77;;;15.10;99.90;;;;;;4936502;29;20056;-74
2022/07/15 05:58:54;;;;;;;1.33;1.10;;;15.10;99.90;;;;;;4936109;29;20487;-76
2022/07/15 06:01:21;;;;;;;3.80;1.02;;;15.20;99.90;;;;;;4935133;29;20050;-74
2022/07/15 06:03:47;;;;;;;3.85;1.10;;;15.50;99.90;;;;;;4935221;29;20509;-78
2022/07/15 06:06:13;;;;;;;1.35;0.90;;;15.60;99.90;;;;;;4935702;29;20046;-78
2022/07/15 06:08:39;;;;;;;2.15;0.98;;;15.80;99.90;;;;;;4935926;29;20054;-74
2022/07/15 06:11:05;;;;;;;1.98;1.00;;;16.00;99.90;;;;;;4935523;29;20047;-77
2022/07/15 06:13:30;;;;;;;4.70;0.88;;;16.30;99.90;;;;;;4935668;29;20047;-74
2022/07/15 06:15:56;;;;;;;2.65;0.85;;;16.50;99.90;;;;;;4934491;29;20488;-76
2022/07/15 06:18:22;;;;;;;0.70;0.70;;;16.60;99.90;;;;;;4935955;29;20051;-74
2022/07/15 06:20:48;;;;;;;2.15;0.88;;;16.50;99.90;;;;;;4935467;29;20449;-75
2022/07/15 06:23:14;;;;;;;2.58;0.93;;;16.50;99.90;;;;;;4935382;29;20051;-76
2022/07/15 06:25:39;;;;;;;2.70;0.90;;;16.50;99.90;;;;;;4935547;29;20090;-78
2022/07/15 06:28:05;;;;;;;1.08;0.88;;;16.60;99.90;;;;;;4935933;29;20498;-76
2022/07/15 06:30:31;;;;;;;4.97;1.20;;;16.70;99.90;;;;;;4935470;29;20392;-76
2022/07/15 06:32:58;;;;;;;1.52;1.05;;;17.00;99.90;;;;;;4935433;29;20062;-76
2022/07/15 06:35:24;;;;;;;1.73;1.00;;;16.90;99.90;;;;;;4935036;29;20461;-74
2022/07/15 06:37:51;;;;;;;2.40;0.80;;;17.00;99.90;;;;;;4935258;29;20067;-78
2022/07/15 06:40:17;;;;;;;1.10;0.60;;;17.10;99.90;;;;;;4935504;29;20051;-77
2022/07/15 06:42:43;;;;;;;2.65;0.90;;;17.10;99.90;;;;;;4935175;29;20047;-75
2022/07/15 06:45:10;;;;;;;1.75;0.88;;;17.10;99.90;;;;;;4935367;29;20047;-74
2022/07/15 06:47:38;;;;;;;3.22;0.90;;;17.00;99.90;;;;;;4935323;29;20472;-76
2022/07/15 06:50:05;;;;;;;3.92;0.85;;;16.90;99.90;;;;;;4935123;29;20099;-76
2022/07/15 06:52:30;;;;;;;2.42;0.85;;;16.80;99.90;;;;;;4935016;29;20106;-77
2022/07/15 06:54:56;;;;;;;2.88;0.70;;;16.80;99.90;;;;;;4935504;29;20061;-78
2022/07/15 06:57:22;;;;;;;1.55;0.57;;;16.70;99.90;;;;;;4935002;29;20457;-77
2022/07/15 06:59:48;;;;;;;2.40;0.70;;;16.80;99.90;;;;;;4935341;29;20418;-75
2022/07/15 07:02:14;;;;;;;1.63;1.20;;;16.90;99.90;;;;;;4935125;29;20047;-75
2022/07/15 07:04:42;;;;;;;3.45;0.82;;;17.10;99.90;;;;;;4934838;29;20468;-75
2022/07/15 07:07:07;;;;;;;2.65;0.88;;;17.30;99.90;;;;;;4935071;29;20047;-77
2022/07/15 07:09:33;;;;;;;1.23;0.75;;;17.40;99.90;;;;;;4935129;29;20050;-75
2022/07/15 07:11:59;;;;;;;3.15;1.10;;;17.60;99.90;;;;;;4934531;29;20048;-75
2022/07/15 07:14:24;;;;;;;1.67;0.80;;;18.00;99.90;;;;;;4935023;29;20059;-74
2022/07/15 07:16:50;;;;;;;1.88;0.73;;;18.00;99.90;;;;;;4934766;29;20437;-68
2022/07/15 07:19:16;;;;;;;3.25;0.85;;;18.10;99.90;;;;;;4935023;29;20062;-71
2022/07/15 07:21:41;;;;;;;2.65;0.80;;;18.20;99.90;;;;;;4935125;29;20055;-79
2022/07/15 07:24:07;;;;;;;2.15;0.60;;;18.30;99.90;;;;;;4934667;29;20127;-75
2022/07/15 07:26:34;;;;;;;2.13;0.93;;;18.90;99.90;;;;;;4934896;29;20051;-77
2022/07/15 07:28:59;;;;;;;1.33;0.45;;;20.00;99.90;;;;;;4935000;29;20049;-75
2022/07/15 07:31:26;;;;;;;0.82;0.60;;;21.20;99.90;;;;;;4934075;29;20127;-74
2022/07/15 07:33:57;;;;;;;1.85;0.70;;;22.60;99.60;;;;;;4934955;29;20456;-78
2022/07/15 07:36:23;;;;;;;1.17;0.70;;;23.10;94.70;;;;;;4934960;29;20087;-80
2022/07/15 07:38:49;;;;;;;1.05;0.60;;;23.10;96.90;;;;;;4934513;29;20060;-76
2022/07/15 07:41:15;;;;;;;2.58;0.73;;;23.50;96.10;;;;;;4934749;29;20052;-77
2022/07/15 07:43:41;;;;;;;2.08;0.70;;;24.10;95.70;;;;;;4934705;29;20070;-77
2022/07/15 07:46:06;;;;;;;3.00;0.73;;;23.60;95.00;;;;;;4934833;29;20052;-78
2022/07/15 07:48:32;;;;;;;1.05;0.60;;;22.60;92.60;;;;;;4934745;29;20079;-77
2022/07/15 07:50:58;;;;;;;1.88;0.75;;;21.70;93.70;;;;;;4934261;29;20047;-79
2022/07/15 07:53:24;;;;;;;1.48;0.55;;;21.00;95.40;;;;;;4934741;29;20054;-77
2022/07/15 07:55:50;;;;;;;0.73;0.55;;;21.00;95.30;;;;;;4934886;29;20040;-77
2022/07/15 07:58:16;;;;;;;1.13;0.63;;;20.90;95.50;;;;;;4935098;29;20091;-74
2022/07/15 08:00:43;;;;;;;1.83;0.50;;;20.40;95.20;;;;;;4934722;29;20063;-73
2022/07/15 08:03:09;;;;;;;1.73;1.02;;;20.10;96.00;;;;;;4934592;29;20039;-76
2022/07/15 08:05:35;;;;;;;0.73;0.50;;;19.70;95.30;;;;;;4935060;29;20100;-77
2022/07/15 08:08:09;;;;;;;0.85;0.60;;;19.50;95.80;;;;;;4934894;29;20078;-78
2022/07/15 08:10:35;;;;;;;1.17;0.68;;;19.50;95.90;;;;;;4933954;29;20055;-74
2022/07/15 08:13:01;;;;;;;1.33;0.60;;;19.50;96.20;;;;;;4934684;29;20122;-77
2022/07/15 08:15:28;;;;;;;1.48;0.63;;;19.80;95.10;;;;;;4934946;29;20564;-73
2022/07/15 08:17:54;;;;;;;1.92;0.50;;;20.40;95.10;;;;;;4938163;29;20052;-75
2022/07/15 08:20:20;;;;;;;1.05;0.60;;;21.10;94.70;;;;;;4938100;29;20052;-76
2022/07/15 08:22:45;;;;;;;0.40;0.40;;;21.00;93.70;;;;;;4938229;29;20044;-75
2022/07/15 08:25:11;;;;;;;1.60;0.60;;;20.60;94.50;;;;;;4938319;29;20055;-75
2022/07/15 08:27:37;;;;;;;0.80;0.60;;;20.10;95.00;;;;;;4938053;29;20044;-76
2022/07/15 08:30:03;;;;;;;1.17;0.70;;;19.70;95.30;;;;;;4937308;29;20460;-75
2022/07/15 08:32:28;;;;;;;3.80;0.93;;;19.40;95.80;;;;;;4937628;29;20050;-76
2022/07/15 08:34:54;;;;;;;1.45;0.57;;;19.30;96.80;;;;;;4937401;29;20047;-78
2022/07/15 08:37:20;;;;;;;1.40;0.50;;;19.10;97.20;;;;;;4937277;29;20056;-72
2022/07/15 08:39:46;;;;;;;1.65;0.77;;;19.20;97.30;;;;;;4936686;29;20501;-73
2022/07/15 08:42:13;;;;;;;1.05;0.40;;;19.40;97.10;;;;;;4937385;29;20055;-68
2022/07/15 08:44:40;;;;;;;1.25;0.55;;;19.50;96.50;;;;;;4937213;29;20052;-68
2022/07/15 08:47:06;;;;;;;0.75;0.30;;;19.70;96.30;;;;;;4936835;29;20143;-68
2022/07/15 08:49:34;;;;;;;1.02;0.50;;;19.60;95.80;;;;;;4936734;29;20524;-68
2022/07/15 08:52:00;;;;;;;0.88;0.70;;;19.50;95.90;;;;;;4935994;29;20062;-68
2022/07/15 08:54:27;;;;;;;3.58;0.70;;;19.40;96.00;;;;;;4936855;29;20123;-69
2022/07/15 08:56:53;;;;;;;0.25;0.25;;;19.20;95.20;;;;;;4936684;29;20081;-68
2022/07/15 08:59:20;;;;;;;2.13;0.40;;;19.20;95.40;;;;;;4936822;29;20472;-68
2022/07/15 09:01:48;;;;;;;1.33;0.88;;;19.30;95.20;;;;;;4936732;29;20047;-68
2022/07/15 09:04:15;;;;;;;0.40;0.40;;;19.40;95.10;;;;;;4936443;29;20373;-68
2022/07/15 09:06:49;;;;;;;0.52;0.50;;;19.60;95.10;;;;;;4936408;29;20502;-69
2022/07/15 09:09:37;;;;;;;1.77;0.60;;;19.80;94.40;;;;;;4936607;29;20102;-68
2022/07/15 09:12:07;;;;;;;6.68;1.15;;;19.90;93.50;;;;;;4936639;29;20081;-69
2022/07/15 09:14:35;;;;;;;0.93;0.40;;;20.30;94.40;;;;;;4936355;29;20055;-68
2022/07/15 09:17:10;;;;;;;0.40;0.30;;;20.70;94.10;;;;;;4936229;29;20052;-69
2022/07/15 09:19:57;;;;;;;1.15;0.60;;;21.10;93.50;;;;;;4936312;29;20483;-69
2022/07/15 09:22:25;;;;;;;1.70;0.50;;;21.60;92.30;;;;;;4936347;29;20126;-69
2022/07/15 09:25:11;;;;;;;1.27;0.70;;;22.00;93.10;;;;;;4936215;29;20449;-69
2022/07/15 09:27:39;;;;;;;1.02;0.70;;;22.20;91.80;;;;;;4934971;29;20052;-69
2022/07/15 09:36:05;;;;;;;2.92;0.70;;;23.10;91.10;;;;;;4936184;29;20063;-69
2022/07/15 09:38:33;;;;;;;1.75;0.50;;;22.60;90.00;;;;;;4936429;29;20063;-69
2022/07/15 09:41:00;;;;;;;0.50;0.50;;;22.20;91.20;;;;;;4935936;29;20055;-69
2022/07/15 09:43:25;;;;;;;1.85;0.52;;;21.80;91.50;;;;;;4935813;29;20047;-68
2022/07/15 09:45:59;;;;;;;2.60;0.60;;;21.60;91.80;;;;;;4935810;29;20051;-68
2022/07/15 09:48:28;;;;;;;1.00;0.50;;;21.20;91.60;;;;;;4935771;29;20048;-69
2022/07/15 09:51:00;;;;;;;1.23;0.65;;;21.00;91.80;;;;;;4935770;29;20055;-69
2022/07/15 09:53:26;;;;;;;;;;;20.80;91.80;;;;;;4936150;29;20055;-68
2022/07/15 09:55:53;;;;;;;1.65;0.43;;;20.40;91.50;;;;;;4934979;29;19927;-69
2022/07/15 09:58:20;;;;;;;0.68;0.50;;;20.30;92.10;;;;;;4935519;29;20067;-69
2022/07/15 10:00:46;;;;;;;1.30;0.70;;;20.30;92.10;;;;;;4935603;29;20451;-69
2022/07/15 10:03:12;;;;;;;0.73;0.40;;;20.50;91.90;;;;;;4935545;29;20123;-68
2022/07/15 10:05:40;;;;;;;0.90;0.47;;;20.90;91.80;;;;;;4935810;29;20472;-69
2022/07/15 10:08:09;;;;;;;0.52;0.50;;;21.30;91.70;;;;;;4935261;29;20058;-69
2022/07/15 10:10:37;;;;;;;0.90;0.55;;;21.40;91.50;;;;;;4935346;29;20047;-69
2022/07/15 10:13:24;;;;;;;0.40;0.40;;;21.40;91.60;;;;;;4935541;29;20062;-68
2022/07/15 10:16:34;;;;;;;0.70;0.60;;;21.10;90.60;;;;;;4935195;29;20546;-68
2022/07/15 10:19:18;;;;;;;1.77;0.70;;;21.00;91.00;;;;;;4934773;29;20482;-69
2022/07/15 10:22:12;;;;;;;1.83;0.85;;;20.80;91.50;;;;;;4935482;29;20055;-68
2022/07/15 10:25:06;;;;;;;1.30;0.70;;;20.80;91.00;;;;;;4935075;29;20047;-68
2022/07/15 10:28:05;;;;;;;1.13;0.60;;;20.90;91.80;;;;;;4935195;29;20063;-68
2022/07/15 10:30:31;;;;;;;0.52;0.40;;;20.90;91.40;;;;;;4935001;29;20103;-69
2022/07/15 10:33:17;;;;;;;0.75;0.60;;;21.00;91.70;;;;;;4934819;29;20040;-69
2022/07/15 10:36:02;;;;;;;1.73;0.90;;;21.20;91.60;;;;;;4934641;29;20138;-68
2022/07/15 10:38:38;;;;;;;1.35;0.57;;;21.50;91.80;;;;;;4933614;29;20060;-75
2022/07/15 10:41:14;;;;;;;1.02;0.50;;;22.00;90.80;;;;;;4934690;29;20067;-74
2022/07/15 10:43:39;;;;;;;2.15;0.80;;;22.20;90.60;;;;;;4934373;29;20051;-73
2022/07/15 10:46:21;;;;;;;0.93;0.30;;;22.30;90.80;;;;;;4933929;29;20044;-73
2022/07/15 10:48:58;;;;;;;1.00;0.90;;;22.20;90.30;;;;;;4934751;29;20073;-74
2022/07/15 10:51:36;;;;;;;1.48;0.50;;;22.40;89.70;;;;;;4934637;29;20052;-73
2022/07/15 10:54:07;;;;;;;3.90;0.77;;;22.40;90.00;;;;;;4934599;29;20051;-73
2022/07/15 10:56:37;;;;;;;1.48;1.13;;;22.30;90.40;;;;;;4933479;29;20060;-78
2022/07/15 10:59:09;;;;;;;0.98;0.63;;;22.50;90.40;;;;;;4934361;29;20100;-74
2022/07/15 11:01:36;;;;;;;0.40;0.40;;;22.50;90.10;;;;;;4934483;29;20043;-74
2022/07/15 11:04:19;;;;;;;2.60;0.43;;;22.20;90.90;;;;;;4934183;29;20481;-74
2022/07/15 11:07:07;;;;;;;2.88;0.85;;;21.50;89.50;;;;;;4934421;29;20110;-73
2022/07/15 11:10:06;;;;;;;1.65;0.65;;;21.00;90.20;;;;;;4934631;29;20069;-75
2022/07/15 11:12:32;;;;;;;0.43;0.43;;;20.80;91.30;;;;;;4934296;29;20127;-74
2022/07/15 11:15:09;;;;;;;1.20;0.30;;;20.60;91.80;;;;;;4934204;29;20094;-73
2022/07/15 11:17:34;;;;;;;1.70;0.80;;;20.40;91.60;;;;;;4934617;29;20047;-75
2022/07/15 11:20:09;;;;;;;0.40;0.28;;;20.30;92.10;;;;;;4934511;29;20134;-75
2022/07/15 11:22:36;;;;;;;2.20;0.70;;;20.30;92.40;;;;;;4934206;29;20043;-76
2022/07/15 11:25:06;;;;;;;1.40;0.50;;;20.40;92.20;;;;;;4934268;29;20053;-75
2022/07/15 11:27:32;;;;;;;0.40;0.35;;;20.40;92.00;;;;;;4933445;29;20062;-76
2022/07/15 11:30:03;;;;;;;1.95;0.60;;;20.50;92.10;;;;;;4934283;29;20079;-74
2022/07/15 11:32:36;;;;;;;1.20;0.55;;;20.50;92.20;;;;;;4934302;29;20369;-74
2022/07/15 11:35:03;;;;;;;0.90;0.50;;;20.40;92.00;;;;;;4934131;29;20048;-73
2022/07/15 11:37:33;;;;;;;4.00;0.50;;;20.40;92.30;;;;;;4933517;29;20055;-73
2022/07/15 11:40:08;;;;;;;0.93;0.65;;;20.50;91.90;;;;;;4934010;29;20055;-74
2022/07/15 11:45:37;;;;;;;1.20;0.47;;;20.50;91.70;;;;;;4933882;29;20051;-73
2022/07/15 11:48:06;;;;;;;4.28;0.70;;;20.70;91.30;;;;;;4932621;29;20134;-73
2022/07/15 11:50:33;;;;;;;1.90;0.57;;;20.70;91.30;;;;;;4935012;29;20052;-75
2022/07/15 11:52:59;;;;;;;0.75;0.75;;;20.70;91.30;;;;;;4937797;29;20043;-73
2022/07/15 11:55:25;;;;;;;0.50;0.50;;;20.70;91.20;;;;;;4937913;29;20058;-73
2022/07/15 11:57:54;;;;;;;1.67;0.98;;;20.70;90.90;;;;;;4937926;29;20119;-72
2022/07/15 12:00:29;;;;;;;1.65;0.57;;;20.80;91.50;;;;;;4938180;29;20043;-74
2022/07/15 12:03:08;;;;;;;1.27;0.80;;;20.90;91.20;;;;;;4938609;29;20051;-76
2022/07/15 12:05:34;;;;;;;0.40;0.40;;;21.00;91.40;;;;;;4936966;29;20107;-73
2022/07/15 12:08:00;;;;;;;2.45;0.52;;;21.00;91.50;;;;;;4938132;29;20044;-75
2022/07/15 12:10:37;;;;;;;0.95;0.90;;;21.00;91.40;;;;;;4937802;29;20509;-72
2022/07/15 12:13:04;;;;;;;1.77;0.60;;;21.00;91.20;;;;;;4937569;29;20052;-72
2022/07/15 12:15:35;;;;;;;0.70;0.40;;;21.00;91.40;;;;;;4937649;29;20525;-73
2022/07/15 12:18:01;;;;;;;1.42;0.80;;;21.10;90.80;;;;;;4937868;29;20043;-73
2022/07/15 12:20:27;;;;;;;0.40;0.40;;;21.00;90.80;;;;;;4937634;29;20481;-73
2022/07/15 12:23:26;;;;;;;1.42;0.90;;;21.10;91.20;;;;;;4937717;29;20139;-74
2022/07/15 12:26:05;;;;;;;0.50;0.50;;;21.30;91.20;;;;;;4936975;29;20065;-77
2022/07/15 12:28:32;;;;;;;0.38;0.38;;;21.20;90.80;;;;;;4937921;29;20074;-73
2022/07/15 12:30:59;;;;;;;0.70;0.50;;;21.10;90.50;;;;;;4937402;29;20052;-74
2022/07/15 12:33:25;;;;;;;0.45;0.40;;;21.00;90.90;;;;;;4937440;29;20457;-76
2022/07/15 12:36:11;;;;;;;1.70;0.73;;;21.10;90.80;;;;;;4937364;29;20051;-74
2022/07/15 12:38:37;;;;;;;0.98;0.60;;;21.00;90.80;;;;;;4937160;29;20075;-74
2022/07/15 12:41:22;;;;;;;1.38;1.08;;;20.90;91.30;;;;;;4937153;29;20189;-75
2022/07/15 12:43:59;;;;;;;1.75;0.60;;;20.80;90.90;;;;;;4937552;29;20051;-75
2022/07/15 12:46:51;;;;;;;2.13;0.50;;;20.80;90.60;;;;;;4937057;29;20581;-76
2022/07/15 12:49:52;;;;;;;1.67;0.70;;;20.80;90.50;;;;;;4937147;29;20052;-74
2022/07/15 12:52:37;;;;;;;5.55;0.90;;;20.60;90.20;;;;;;4937237;29;20054;-74
2022/07/15 12:55:19;;;;;;;0.95;0.90;;;20.50;90.70;;;;;;4937256;29;20134;-75
2022/07/15 12:57:45;;;;;;;0.50;0.50;;;20.60;91.00;;;;;;4937554;29;20094;-75
2022/07/15 13:00:17;;;;;;;1.65;0.57;;;20.80;91.40;;;;;;4937020;29;20047;-76
2022/07/15 13:03:03;;;;;;;1.15;0.95;;;21.00;90.50;;;;;;4937283;29;20043;-75
2022/07/15 13:05:43;;;;;;;6.70;0.90;;;21.10;90.80;;;;;;4937142;29;20047;-78